Time;durP1;ratioP1;P1;durP2;ratioP2;P2;SDS_P1;SDS_P2;PMS_P1;PMS_P2;Temp;Humidity;BMP_temperature;BMP_pressure;BME280_temperature;BME280_humidity;BME280_pressure;Samples;Min_cycle;Max_cycle;Signal;HPM_P1;HPM_P2
2022/11/10 00:00:33;;;;;;;16.50;2.85;;;13.60;99.90;;;;;;5049292;28;20056;-65
2022/11/10 00:03:03;;;;;;;19.63;3.10;;;13.80;99.90;;;;;;5050801;28;20041;-65
2022/11/10 00:05:29;;;;;;;18.25;3.30;;;12.90;99.90;;;;;;5042320;28;20116;-64
2022/11/10 00:07:55;;;;;;;16.33;3.50;;;13.60;99.90;;;;;;5044538;28;20121;-65
2022/11/10 00:10:21;;;;;;;18.40;2.72;;;13.00;99.90;;;;;;5049503;28;20052;-65
2022/11/10 00:12:47;;;;;;;13.15;2.63;;;13.60;99.90;;;;;;5048364;28;20051;-65
2022/11/10 00:17:56;;;;;;;19.95;3.55;;;13.00;99.90;;;;;;5036119;28;20059;-65
2022/11/10 00:20:22;;;;;;;12.70;2.97;;;12.90;99.90;;;;;;5046015;28;20128;-65
2022/11/10 00:22:47;;;;;;;21.13;3.22;;;13.60;99.90;;;;;;5048297;28;20041;-65
2022/11/10 00:25:13;;;;;;;17.02;2.92;;;12.80;99.90;;;;;;5043863;28;20068;-65
2022/11/10 00:27:38;;;;;;;19.58;3.33;;;13.10;99.90;;;;;;5050079;28;20406;-65
2022/11/10 00:30:05;;;;;;;17.23;2.90;;;12.90;99.90;;;;;;5044733;28;20044;-65
2022/11/10 00:32:31;;;;;;;13.23;2.53;;;13.80;99.90;;;;;;5044652;28;20049;-65
2022/11/10 00:34:57;;;;;;;17.80;2.78;;;12.80;99.90;;;;;;5049068;28;20029;-65
2022/11/10 00:37:22;;;;;;;27.48;3.47;;;12.90;99.90;;;;;;5048619;28;20155;-65
2022/11/10 00:39:48;;;;;;;14.18;2.47;;;13.20;99.90;;;;;;5042556;28;20049;-65
2022/11/10 00:42:13;;;;;;;17.02;2.60;;;13.60;99.90;;;;;;5048191;28;20072;-65
2022/11/10 00:44:39;;;;;;;20.67;3.20;;;13.30;99.90;;;;;;5043492;28;20026;-65
2022/11/10 00:47:05;;;;;;;13.07;2.22;;;12.80;99.90;;;;;;5049928;28;20092;-65
2022/11/10 00:49:31;;;;;;;10.68;2.22;;;13.30;99.90;;;;;;5042909;28;20045;-65
2022/11/10 00:51:56;;;;;;;14.90;3.00;;;13.50;99.90;;;;;;5048670;28;20068;-65
2022/11/10 00:54:22;;;;;;;15.30;2.90;;;13.70;99.90;;;;;;5049937;28;20068;-65
2022/11/10 00:56:48;;;;;;;17.25;2.53;;;12.90;99.90;;;;;;5043321;28;20517;-65
2022/11/10 00:59:13;;;;;;;15.20;2.75;;;12.90;99.90;;;;;;5027915;28;20071;-65
2022/11/10 01:01:39;;;;;;;19.77;2.75;;;12.80;99.90;;;;;;5047831;28;20457;-65
2022/11/10 01:04:04;;;;;;;18.73;2.90;;;13.60;99.90;;;;;;5050142;28;20501;-65
2022/11/10 01:06:30;;;;;;;18.75;2.72;;;13.90;99.90;;;;;;5048639;28;20513;-65
2022/11/10 01:08:56;;;;;;;25.58;3.40;;;12.60;99.90;;;;;;5050719;28;20041;-65
2022/11/10 01:11:25;;;;;;;21.55;3.35;;;12.50;99.90;;;;;;5044468;28;20057;-65
2022/11/10 01:13:52;;;;;;;20.67;3.13;;;12.60;99.90;;;;;;5046164;28;20041;-65
2022/11/10 01:16:29;;;;;;;17.73;2.75;;;12.60;99.90;;;;;;5045977;28;20111;-65
2022/11/10 01:19:00;;;;;;;19.20;3.10;;;12.70;99.90;;;;;;5049399;28;20077;-65
2022/11/10 01:21:27;;;;;;;21.95;3.78;;;13.60;99.90;;;;;;5052254;28;20486;-65
2022/11/10 01:23:53;;;;;;;21.98;3.10;;;13.60;99.90;;;;;;5046896;28;20053;-65
2022/11/10 01:26:19;;;;;;;22.17;3.08;;;13.70;99.90;;;;;;5044451;28;20041;-65
2022/11/10 01:28:45;;;;;;;18.67;3.47;;;12.60;99.90;;;;;;5049605;28;20033;-65
2022/11/10 01:31:14;;;;;;;16.52;2.72;;;12.70;99.90;;;;;;5049580;28;20060;-65
2022/11/10 01:33:40;;;;;;;25.85;3.47;;;13.30;99.90;;;;;;5048716;28;20045;-65
2022/11/10 01:36:08;;;;;;;18.38;3.55;;;13.20;99.90;;;;;;5050862;28;20036;-65
2022/11/10 01:38:35;;;;;;;12.73;2.63;;;12.70;99.90;;;;;;5051222;28;20037;-65
2022/11/10 01:41:02;;;;;;;16.42;2.53;;;12.70;99.90;;;;;;5048083;28;20150;-65
2022/11/10 01:43:29;;;;;;;25.33;3.50;;;12.10;99.90;;;;;;5045447;28;20037;-65
2022/11/10 01:45:55;;;;;;;23.08;2.97;;;13.50;99.90;;;;;;5049831;28;20025;-65
2022/11/10 01:48:31;;;;;;;16.35;3.05;;;12.20;99.90;;;;;;5051679;28;20044;-65
2022/11/10 01:51:05;;;;;;;21.85;3.10;;;13.10;99.90;;;;;;5049869;28;20029;-65
2022/11/10 01:53:33;;;;;;;19.90;3.22;;;12.30;99.90;;;;;;5046904;28;20044;-65
2022/11/10 01:56:00;;;;;;;13.25;2.28;;;12.90;99.90;;;;;;5050643;28;20135;-65
2022/11/10 01:58:31;;;;;;;21.15;2.85;;;12.00;99.90;;;;;;5052310;28;20037;-65
2022/11/10 02:00:56;;;;;;;15.98;2.97;;;12.70;99.90;;;;;;5042295;28;20131;-65
2022/11/10 02:03:32;;;;;;;18.35;2.63;;;12.70;99.90;;;;;;5052351;28;20040;-65
2022/11/10 02:05:58;;;;;;;26.05;3.17;;;12.90;99.90;;;;;;5051086;28;20036;-65
2022/11/10 02:08:25;;;;;;;18.20;2.75;;;11.90;99.90;;;;;;5052561;28;20049;-65
2022/11/10 02:10:51;;;;;;;17.52;3.08;;;13.90;99.90;;;;;;5014917;28;1034070;-65
2022/11/10 02:13:16;;;;;;;22.55;3.15;;;13.20;99.90;;;;;;5050129;28;20040;-65
2022/11/10 02:15:42;;;;;;;16.48;2.72;;;12.60;99.90;;;;;;5053062;28;20398;-65
2022/11/10 02:18:08;;;;;;;14.20;2.72;;;12.50;99.90;;;;;;5050842;28;20130;-65
2022/11/10 02:20:33;;;;;;;17.35;3.40;;;13.70;99.90;;;;;;5052417;28;20039;-65
2022/11/10 02:23:14;;;;;;;14.95;2.92;;;12.60;99.90;;;;;;5047032;28;20126;-65
2022/11/10 02:25:39;;;;;;;14.23;2.75;;;12.70;99.90;;;;;;5047688;28;20033;-65
2022/11/10 02:28:05;;;;;;;14.13;2.67;;;13.60;99.90;;;;;;5052319;28;20044;-65
2022/11/10 02:30:30;;;;;;;20.85;2.88;;;12.50;99.90;;;;;;5051294;28;20059;-65
2022/11/10 02:32:56;;;;;;;22.13;3.00;;;12.30;99.90;;;;;;5049599;28;20102;-65
2022/11/10 02:35:21;;;;;;;19.13;3.05;;;12.40;99.90;;;;;;5044070;28;20084;-65
2022/11/10 02:37:47;;;;;;;17.95;2.90;;;12.20;99.90;;;;;;5049643;28;20557;-65
2022/11/10 02:40:13;;;;;;;11.93;2.78;;;12.10;99.90;;;;;;5043459;28;20049;-65
2022/11/10 02:42:38;;;;;;;14.95;2.40;;;12.40;99.90;;;;;;5046287;28;20033;-65
2022/11/10 02:45:04;;;;;;;17.48;2.75;;;11.90;99.90;;;;;;5050211;28;20035;-65
2022/11/10 02:47:30;;;;;;;16.65;2.88;;;13.20;99.90;;;;;;5047241;28;20037;-65
2022/11/10 02:49:55;;;;;;;12.00;2.85;;;12.30;99.90;;;;;;5046652;28;20406;-65
2022/11/10 02:52:21;;;;;;;18.92;2.72;;;12.30;99.90;;;;;;5038509;28;20084;-65
2022/11/10 02:54:47;;;;;;;14.18;2.28;;;13.30;99.90;;;;;;5033819;28;20034;-65
2022/11/10 02:57:12;;;;;;;24.52;2.97;;;13.50;99.90;;;;;;5051266;28;20040;-65
2022/11/10 02:59:38;;;;;;;18.65;3.08;;;12.30;99.90;;;;;;5045077;28;20102;-65
2022/11/10 03:02:03;;;;;;;17.05;2.95;;;12.30;99.90;;;;;;5049656;28;20521;-65
2022/11/10 03:04:29;;;;;;;19.13;3.00;;;13.20;99.90;;;;;;5051391;28;20079;-65
2022/11/10 03:06:54;;;;;;;12.23;3.00;;;13.20;99.90;;;;;;5050273;28;20123;-65
2022/11/10 03:09:20;;;;;;;13.57;2.38;;;13.00;99.90;;;;;;5048048;28;20524;-65
2022/11/10 03:11:45;;;;;;;12.38;2.53;;;11.80;99.90;;;;;;5043928;28;20127;-66
2022/11/10 03:14:11;;;;;;;11.25;2.38;;;12.90;99.90;;;;;;5048852;28;20053;-65
2022/11/10 03:16:36;;;;;;;17.33;2.75;;;12.50;99.90;;;;;;5043772;28;20075;-65
2022/11/10 03:19:02;;;;;;;14.75;3.30;;;11.60;99.90;;;;;;5050137;28;20048;-65
2022/11/10 03:21:27;;;;;;;18.60;2.92;;;11.90;99.90;;;;;;5049472;28;20049;-65
2022/11/10 03:23:53;;;;;;;11.60;2.17;;;13.00;99.90;;;;;;5047376;28;20519;-65
2022/11/10 03:26:18;;;;;;;16.17;2.75;;;12.40;99.90;;;;;;5050765;28;20033;-65
2022/11/10 03:28:44;;;;;;;14.93;2.55;;;11.70;99.90;;;;;;5050316;28;20107;-65
2022/11/10 03:31:09;;;;;;;25.33;2.83;;;12.80;99.90;;;;;;5038853;28;20124;-65
2022/11/10 03:33:35;;;;;;;18.15;3.05;;;13.10;99.90;;;;;;5047188;28;20040;-65
2022/11/10 03:36:00;;;;;;;22.65;3.78;;;13.10;99.90;;;;;;5049211;28;20117;-65
2022/11/10 03:38:26;;;;;;;20.77;2.90;;;13.30;99.90;;;;;;5046512;28;20037;-65
2022/11/10 03:40:52;;;;;;;12.07;2.63;;;13.10;99.90;;;;;;5046128;28;20033;-65
2022/11/10 03:43:17;;;;;;;15.95;2.95;;;12.40;99.90;;;;;;5048936;28;20037;-65
2022/11/10 03:45:43;;;;;;;17.58;3.10;;;13.00;99.90;;;;;;5050348;28;20505;-65
2022/11/10 03:48:09;;;;;;;21.02;3.25;;;11.90;99.90;;;;;;5050150;28;20402;-65
2022/11/10 03:50:35;;;;;;;18.42;3.55;;;12.80;99.90;;;;;;5050370;28;20051;-65
2022/11/10 03:53:01;;;;;;;16.30;2.97;;;11.60;99.90;;;;;;5049605;28;20040;-65
2022/11/10 03:55:26;;;;;;;11.02;2.70;;;13.00;99.90;;;;;;5050039;28;20491;-65
2022/11/10 03:57:52;;;;;;;14.68;2.92;;;11.50;99.90;;;;;;5042843;28;20103;-65
2022/11/10 04:00:18;;;;;;;20.38;2.60;;;13.10;99.90;;;;;;5036823;28;20478;-65
2022/11/10 04:02:43;;;;;;;21.17;3.20;;;11.70;99.90;;;;;;5049545;28;20556;-65
2022/11/10 04:10:40;;;;;;;18.35;3.58;;;13.50;99.90;;;;;;5050050;28;20053;-65
2022/11/10 04:15:51;;;;;;;20.77;3.45;;;12.00;99.90;;;;;;5044891;28;20107;-65
2022/11/10 04:18:25;;;;;;;16.35;3.00;;;12.50;99.90;;;;;;5050813;28;20048;-65
2022/11/10 04:21:09;;;;;;;23.00;3.72;;;12.40;99.90;;;;;;5049069;28;20064;-65
2022/11/10 04:23:35;;;;;;;16.35;2.40;;;12.60;99.90;;;;;;5049893;28;20041;-65
2022/11/10 04:28:53;;;;;;;18.02;2.97;;;13.70;99.90;;;;;;5048087;28;20099;-65
2022/11/10 04:31:20;;;;;;;21.20;3.30;;;13.60;99.90;;;;;;5050128;28;20487;-65
2022/11/10 04:33:47;;;;;;;21.40;3.15;;;13.80;99.90;;;;;;5049465;28;20388;-65
2022/11/10 04:36:19;;;;;;;30.33;3.83;;;13.70;99.90;;;;;;5047542;28;20102;-65
2022/11/10 04:38:45;;;;;;;18.42;2.78;;;13.30;99.90;;;;;;5050851;28;20505;-65
2022/11/10 04:41:11;;;;;;;18.73;3.00;;;12.40;99.90;;;;;;5050146;28;20072;-65
2022/11/10 04:43:37;;;;;;;19.58;3.38;;;13.30;99.90;;;;;;5049701;28;20032;-65
2022/11/10 04:46:04;;;;;;;21.35;2.78;;;12.40;99.90;;;;;;5050380;28;20124;-65
2022/11/10 04:48:31;;;;;;;16.15;3.03;;;13.80;99.90;;;;;;5048581;28;20499;-65
2022/11/10 04:51:02;;;;;;;10.30;2.63;;;12.70;99.90;;;;;;5051781;28;20513;-65
2022/11/10 04:53:28;;;;;;;17.42;3.10;;;14.70;99.90;;;;;;5038612;28;20041;-65
2022/11/10 04:55:53;;;;;;;24.40;3.17;;;12.60;99.90;;;;;;5050573;28;20418;-65
2022/11/10 04:58:19;;;;;;;13.38;2.72;;;13.50;99.90;;;;;;5050415;28;20510;-65
2022/11/10 05:00:44;;;;;;;27.15;3.70;;;13.50;99.90;;;;;;5050128;28;20498;-65
2022/11/10 05:03:11;;;;;;;22.60;3.20;;;13.60;99.90;;;;;;5047647;28;20454;-65
2022/11/10 05:05:37;;;;;;;14.65;3.17;;;12.10;99.90;;;;;;5051288;28;20029;-65
2022/11/10 05:08:03;;;;;;;22.85;3.45;;;12.30;99.90;;;;;;5044249;28;20116;-65
2022/11/10 05:10:28;;;;;;;20.05;3.42;;;12.00;99.90;;;;;;5036900;28;20559;-65
2022/11/10 05:12:57;;;;;;;19.55;2.92;;;12.60;99.90;;;;;;5046499;28;20175;-65
2022/11/10 05:15:23;;;;;;;23.23;3.35;;;13.00;99.90;;;;;;5045776;28;20104;-65
2022/11/10 05:17:51;;;;;;;19.27;2.53;;;13.10;99.90;;;;;;5049441;28;20122;-65
2022/11/10 05:20:18;;;;;;;21.92;3.20;;;13.00;99.90;;;;;;5049042;28;20049;-65
2022/11/10 05:22:45;;;;;;;14.73;3.42;;;12.10;99.90;;;;;;5052716;28;20583;-65
2022/11/10 05:25:11;;;;;;;19.45;3.83;;;11.60;99.90;;;;;;5033468;28;20033;-65
2022/11/10 05:27:37;;;;;;;19.25;3.33;;;12.90;99.90;;;;;;5066047;28;20099;-65
2022/11/10 05:30:02;;;;;;;18.73;3.10;;;12.40;99.90;;;;;;5050009;28;20065;-65
2022/11/10 05:32:28;;;;;;;20.15;3.20;;;13.10;99.90;;;;;;5045060;28;21330;-65
2022/11/10 05:34:53;;;;;;;19.98;3.88;;;13.10;99.90;;;;;;5049449;28;20040;-65
2022/11/10 05:37:19;;;;;;;26.15;3.90;;;13.10;99.90;;;;;;5048381;28;20068;-65
2022/11/10 05:39:45;;;;;;;20.45;3.20;;;11.90;99.90;;;;;;5046463;28;20025;-65
2022/11/10 05:42:10;;;;;;;18.70;3.33;;;13.50;99.90;;;;;;5049141;28;20033;-65
2022/11/10 05:44:36;;;;;;;15.95;3.28;;;12.10;99.90;;;;;;5048033;28;20099;-65
2022/11/10 05:47:01;;;;;;;15.15;3.08;;;12.10;99.90;;;;;;5049301;28;20037;-65
2022/11/10 05:49:27;;;;;;;19.80;4.35;;;13.30;99.90;;;;;;5048846;28;20040;-65
2022/11/10 05:51:52;;;;;;;19.52;3.50;;;11.90;99.90;;;;;;5042747;28;20443;-65
2022/11/10 05:54:18;;;;;;;25.52;3.50;;;12.80;99.90;;;;;;5049517;28;20037;-65
2022/11/10 05:56:44;;;;;;;17.83;3.35;;;13.00;99.90;;;;;;5046473;28;20119;-65
2022/11/10 05:59:10;;;;;;;23.23;3.83;;;12.40;99.90;;;;;;5049736;28;20036;-65
2022/11/10 06:01:35;;;;;;;28.45;3.25;;;11.80;99.90;;;;;;5051749;28;20036;-65
2022/11/10 06:04:01;;;;;;;20.50;4.03;;;13.00;99.90;;;;;;5047988;28;20037;-65
2022/11/10 06:06:27;;;;;;;29.92;3.90;;;12.90;99.90;;;;;;5046298;28;20041;-65
2022/11/10 06:08:52;;;;;;;23.40;3.13;;;12.80;99.90;;;;;;5040534;28;20044;-65
2022/11/10 06:11:19;;;;;;;26.48;3.63;;;13.00;99.90;;;;;;5051039;28;20065;-65
2022/11/10 06:13:44;;;;;;;28.63;3.67;;;12.90;99.90;;;;;;5051694;28;20052;-65
2022/11/10 06:16:11;;;;;;;23.05;3.78;;;12.50;99.90;;;;;;5053009;28;20025;-65
2022/11/10 06:18:36;;;;;;;19.95;2.90;;;12.30;99.90;;;;;;5045229;28;20182;-65
2022/11/10 06:21:02;;;;;;;18.15;3.13;;;13.50;99.90;;;;;;5049006;28;20110;-65
2022/11/10 06:23:28;;;;;;;23.67;3.22;;;12.90;99.90;;;;;;5050661;28;20376;-65
2022/11/10 06:25:54;;;;;;;21.15;3.70;;;12.20;99.90;;;;;;5046350;28;20687;-65
2022/11/10 06:28:19;;;;;;;21.40;3.45;;;12.20;99.90;;;;;;5049620;28;20037;-65
2022/11/10 06:30:45;;;;;;;25.35;3.65;;;12.10;99.90;;;;;;5045955;28;20112;-65
2022/11/10 06:33:11;;;;;;;22.00;3.55;;;13.70;99.90;;;;;;5051002;28;20076;-65
2022/11/10 06:35:36;;;;;;;17.85;3.08;;;12.10;99.90;;;;;;5054558;28;20512;-65
2022/11/10 06:38:05;;;;;;;18.33;3.80;;;13.20;99.90;;;;;;5050147;28;20524;-65
2022/11/10 06:40:32;;;;;;;18.58;4.53;;;12.10;99.90;;;;;;5031056;28;20466;-65
2022/11/10 06:42:58;;;;;;;20.83;2.95;;;12.10;99.90;;;;;;5047719;28;20073;-65
2022/11/10 06:45:27;;;;;;;21.20;3.10;;;12.40;99.90;;;;;;5049948;28;20041;-65
2022/11/10 06:48:12;;;;;;;16.63;2.75;;;13.60;99.90;;;;;;5051153;28;20041;-65
2022/11/10 06:50:38;;;;;;;18.92;3.13;;;13.70;99.90;;;;;;5049113;28;20040;-65
2022/11/10 06:53:04;;;;;;;17.35;3.00;;;12.40;99.90;;;;;;5050780;28;20052;-65
2022/11/10 06:55:29;;;;;;;22.70;3.67;;;12.00;99.90;;;;;;5045504;28;20067;-65
2022/11/10 06:57:55;;;;;;;18.80;3.78;;;12.90;99.90;;;;;;5049539;28;20625;-65
2022/11/10 07:00:21;;;;;;;23.85;3.05;;;13.60;99.90;;;;;;5049944;28;20039;-65
2022/11/10 07:02:47;;;;;;;23.23;3.15;;;13.70;99.90;;;;;;5046050;28;20047;-64
2022/11/10 07:05:14;;;;;;;20.88;3.63;;;13.10;99.90;;;;;;5048808;28;20021;-65
2022/11/10 07:07:39;;;;;;;23.98;3.67;;;12.00;99.90;;;;;;5051263;28;20048;-65
2022/11/10 07:10:06;;;;;;;24.52;3.25;;;12.50;99.90;;;;;;5051069;28;20037;-66
2022/11/10 07:12:31;;;;;;;18.85;3.30;;;11.80;99.90;;;;;;5049448;28;20582;-66
2022/11/10 07:14:57;;;;;;;15.98;3.05;;;13.60;99.90;;;;;;5047485;28;20137;-66
2022/11/10 07:17:24;;;;;;;23.60;3.63;;;12.00;99.90;;;;;;5046656;28;20041;-66
2022/11/10 07:19:49;;;;;;;15.07;3.05;;;12.30;99.90;;;;;;5048229;28;20041;-66
2022/11/10 07:22:15;;;;;;;19.20;3.08;;;13.60;99.90;;;;;;5041540;28;20045;-66
2022/11/10 07:24:40;;;;;;;31.13;3.53;;;13.40;99.90;;;;;;5050952;28;20033;-66
2022/11/10 07:27:07;;;;;;;34.13;4.78;;;13.70;99.90;;;;;;5042196;28;20036;-66
2022/11/10 07:29:32;;;;;;;25.90;4.05;;;12.50;99.90;;;;;;5047532;28;20049;-66
2022/11/10 07:31:58;;;;;;;28.58;4.18;;;12.10;99.90;;;;;;5044574;28;20513;-66
2022/11/10 07:34:23;;;;;;;16.25;3.00;;;13.90;99.90;;;;;;5048734;28;20494;-66
2022/11/10 07:36:49;;;;;;;23.38;3.33;;;12.30;99.90;;;;;;5042679;28;20128;-66
2022/11/10 07:39:14;;;;;;;16.83;3.00;;;12.40;99.90;;;;;;5043502;28;20108;-66
2022/11/10 07:41:40;;;;;;;24.20;4.45;;;13.00;99.90;;;;;;5051730;28;20090;-66
2022/11/10 07:44:05;;;;;;;22.65;3.47;;;12.60;99.90;;;;;;5050598;28;20037;-66
2022/11/10 07:46:31;;;;;;;16.15;2.70;;;13.50;99.90;;;;;;5040956;28;20051;-66
2022/11/10 07:48:57;;;;;;;25.17;3.13;;;14.90;99.90;;;;;;5047308;28;20159;-66
2022/11/10 07:51:22;;;;;;;27.20;3.13;;;12.80;99.90;;;;;;5048849;28;20483;-64
2022/11/10 07:53:48;;;;;;;23.15;3.67;;;14.30;99.90;;;;;;5048224;28;20041;-64
2022/11/10 07:56:14;;;;;;;18.90;2.97;;;12.80;99.90;;;;;;5042244;28;20038;-65
2022/11/10 07:58:39;;;;;;;25.38;3.90;;;14.50;99.90;;;;;;5047431;28;20039;-65
2022/11/10 08:01:05;;;;;;;17.45;3.10;;;14.30;99.90;;;;;;5046605;28;20511;-64
2022/11/10 08:03:31;;;;;;;17.85;2.92;;;13.70;99.90;;;;;;5045949;28;20546;-64
2022/11/10 08:05:57;;;;;;;19.55;2.72;;;12.80;99.90;;;;;;5050048;28;20029;-64
2022/11/10 08:08:22;;;;;;;20.73;3.25;;;12.90;99.90;;;;;;5046641;28;20049;-65
2022/11/10 08:10:48;;;;;;;19.95;3.40;;;13.60;99.90;;;;;;5043297;28;20563;-65
2022/11/10 08:13:13;;;;;;;24.77;4.47;;;14.50;99.90;;;;;;5051672;28;20045;-64
2022/11/10 08:15:40;;;;;;;19.42;2.78;;;14.60;99.90;;;;;;5049823;28;20124;-65
2022/11/10 08:18:27;;;;;;;17.58;4.10;;;14.40;99.90;;;;;;5050558;28;20147;-65
2022/11/10 08:20:52;;;;;;;24.17;3.92;;;13.30;99.90;;;;;;5044941;28;20106;-65
2022/11/10 08:23:18;;;;;;;19.77;3.63;;;13.10;99.90;;;;;;5048600;28;20731;-64
2022/11/10 08:25:45;;;;;;;27.70;4.03;;;14.70;99.90;;;;;;5047739;28;20040;-65
2022/11/10 08:28:14;;;;;;;15.98;2.50;;;13.20;99.90;;;;;;5041012;28;20045;-65
2022/11/10 08:30:42;;;;;;;18.33;2.85;;;12.80;99.90;;;;;;5035683;28;20087;-65
2022/11/10 08:33:09;;;;;;;23.15;3.33;;;13.60;99.90;;;;;;5045179;28;20068;-65
2022/11/10 08:35:37;;;;;;;20.98;4.03;;;14.70;99.90;;;;;;5047142;28;20040;-64
2022/11/10 08:38:17;;;;;;;19.45;3.70;;;15.10;99.90;;;;;;5050581;28;20025;-65
2022/11/10 08:40:43;;;;;;;21.58;3.58;;;15.20;99.90;;;;;;5049930;28;20124;-65
2022/11/10 08:43:11;;;;;;;17.20;3.28;;;15.50;99.90;;;;;;5048046;28;20036;-65
2022/11/10 08:45:39;;;;;;;19.30;3.38;;;14.20;99.90;;;;;;5045450;28;20106;-66
2022/11/10 08:48:18;;;;;;;23.08;3.30;;;14.30;99.90;;;;;;5046976;28;20119;-65
2022/11/10 08:50:45;;;;;;;12.48;2.95;;;15.70;99.90;;;;;;5044397;28;20040;-64
2022/11/10 08:53:22;;;;;;;18.23;3.00;;;14.40;99.90;;;;;;5044675;28;20037;-64
2022/11/10 08:55:49;;;;;;;22.35;3.78;;;14.40;99.90;;;;;;5046669;28;20055;-64
2022/11/10 08:58:17;;;;;;;15.45;3.03;;;15.10;99.90;;;;;;5048300;28;20459;-64
2022/11/10 09:00:43;;;;;;;11.85;2.55;;;15.60;99.90;;;;;;5045146;28;20037;-64
2022/11/10 09:03:18;;;;;;;18.60;3.08;;;14.30;99.90;;;;;;5042431;28;20037;-64
2022/11/10 09:05:44;;;;;;;11.93;2.33;;;15.00;99.90;;;;;;5043858;28;20051;-64
2022/11/10 09:08:11;;;;;;;18.67;3.67;;;14.10;99.90;;;;;;5041952;28;20487;-62
2022/11/10 09:10:42;;;;;;;13.15;3.25;;;14.00;99.90;;;;;;5042261;28;20053;-64
2022/11/10 09:13:10;;;;;;;22.27;3.38;;;15.60;99.90;;;;;;5043206;28;20053;-65
2022/11/10 09:15:36;;;;;;;24.08;3.35;;;14.80;99.90;;;;;;5048510;28;20087;-65
2022/11/10 09:18:03;;;;;;;16.67;2.85;;;16.20;99.90;;;;;;5049009;28;20064;-66
2022/11/10 09:20:30;;;;;;;23.92;3.58;;;15.20;99.90;;;;;;5049685;28;20064;-66
2022/11/10 09:22:56;;;;;;;20.02;3.70;;;15.90;99.90;;;;;;5048766;28;20057;-66
2022/11/10 09:25:22;;;;;;;19.35;3.47;;;15.40;99.90;;;;;;5040341;28;20393;-66
2022/11/10 09:27:48;;;;;;;22.80;4.43;;;15.10;99.90;;;;;;5048296;28;20076;-65
2022/11/10 09:30:14;;;;;;;23.35;3.05;;;15.80;99.90;;;;;;5043065;28;20065;-64
2022/11/10 09:32:40;;;;;;;17.05;3.03;;;16.00;99.90;;;;;;5046638;28;20488;-64
2022/11/10 09:35:05;;;;;;;16.13;3.17;;;15.30;99.90;;;;;;5051266;28;20041;-64
2022/11/10 09:37:31;;;;;;;25.10;3.63;;;15.80;99.90;;;;;;5051047;28;20418;-64
2022/11/10 09:39:57;;;;;;;12.00;2.70;;;14.60;99.90;;;;;;5051930;28;20060;-64
2022/11/10 09:42:40;;;;;;;16.20;3.03;;;15.30;99.90;;;;;;5047845;28;20037;-64
2022/11/10 09:45:45;;;;;;;17.08;3.13;;;15.00;99.90;;;;;;5054748;28;20033;-64
2022/11/10 09:48:31;;;;;;;17.27;2.72;;;14.00;99.90;;;;;;4995224;28;20048;-64
2022/11/10 09:51:09;;;;;;;23.60;5.00;;;14.30;99.90;;;;;;4995100;28;20038;-64
2022/11/10 09:54:04;;;;;;;11.82;3.22;;;14.50;99.90;;;;;;5022892;28;20119;-64
2022/11/10 09:56:34;;;;;;;26.58;3.42;;;15.70;99.90;;;;;;5048725;28;20040;-64
2022/11/10 09:59:05;;;;;;;19.35;2.75;;;15.60;99.90;;;;;;5054371;28;20054;-64
2022/11/10 10:02:00;;;;;;;27.75;3.13;;;14.80;99.90;;;;;;5054427;28;20049;-64
2022/11/10 10:04:54;;;;;;;12.65;3.92;;;15.70;99.90;;;;;;5054546;28;20029;-64
2022/11/10 10:07:40;;;;;;;26.42;4.68;;;14.90;99.90;;;;;;5043656;28;20041;-64
2022/11/10 10:10:43;;;;;;;25.58;3.78;;;14.80;99.90;;;;;;5048432;28;20041;-64
2022/11/10 10:13:49;;;;;;;21.60;3.20;;;15.00;99.90;;;;;;5060428;28;20044;-64
2022/11/10 10:16:35;;;;;;;28.65;4.60;;;15.00;99.90;;;;;;5035691;28;20069;-64
2022/11/10 10:19:36;;;;;;;27.13;3.88;;;15.00;99.90;;;;;;5051659;28;20033;-64
2022/11/10 10:22:16;;;;;;;28.25;4.05;;;14.80;99.90;;;;;;5054008;28;20094;-64
2022/11/10 10:24:41;;;;;;;23.00;3.90;;;14.80;99.90;;;;;;5052122;28;20041;-64
2022/11/10 10:27:19;;;;;;;24.85;4.18;;;14.90;99.90;;;;;;5051529;28;20390;-64
2022/11/10 10:29:48;;;;;;;20.17;3.15;;;14.30;99.90;;;;;;5047374;28;20398;-64
2022/11/10 10:32:15;;;;;;;23.38;3.83;;;15.20;99.90;;;;;;5050417;28;20029;-64
2022/11/10 10:34:43;;;;;;;31.75;4.65;;;14.40;99.90;;;;;;5046039;28;20045;-64
2022/11/10 10:37:22;;;;;;;24.63;4.63;;;13.90;99.90;;;;;;5051487;28;20040;-64
2022/11/10 10:39:49;;;;;;;16.90;2.92;;;15.30;99.90;;;;;;5046527;28;20107;-64
2022/11/10 10:42:25;;;;;;;22.60;3.58;;;15.20;99.90;;;;;;5046805;28;20041;-63
2022/11/10 10:45:14;;;;;;;23.95;3.53;;;15.10;99.90;;;;;;5049219;28;20052;-63
2022/11/10 10:47:40;;;;;;;16.67;2.90;;;15.00;99.90;;;;;;5051369;28;20032;-64
2022/11/10 10:50:20;;;;;;;21.30;3.38;;;15.10;99.90;;;;;;5051415;28;20044;-64
2022/11/10 10:53:04;;;;;;;23.85;3.67;;;15.70;99.90;;;;;;5051367;28;20044;-64
2022/11/10 10:55:30;;;;;;;18.80;3.47;;;15.00;99.90;;;;;;5051722;28;20037;-64
2022/11/10 10:58:01;;;;;;;24.50;3.80;;;14.90;99.90;;;;;;5047252;28;20124;-64
2022/11/10 11:00:28;;;;;;;26.27;3.70;;;15.80;99.90;;;;;;5046220;28;20035;-64
2022/11/10 11:03:01;;;;;;;25.92;3.55;;;15.10;99.90;;;;;;5051917;28;20404;-65
2022/11/10 11:05:27;;;;;;;23.92;3.47;;;15.70;99.90;;;;;;5049273;28;20159;-64
2022/11/10 11:08:00;;;;;;;18.88;3.80;;;15.30;99.90;;;;;;5053340;28;20048;-64
2022/11/10 11:10:28;;;;;;;23.90;3.72;;;15.40;99.90;;;;;;5043713;28;20049;-64
2022/11/10 11:12:53;;;;;;;25.42;3.42;;;15.20;99.90;;;;;;5033275;28;20094;-64
2022/11/10 11:15:27;;;;;;;32.05;4.10;;;14.90;99.90;;;;;;5048793;28;20037;-64
2022/11/10 11:18:01;;;;;;;23.88;3.47;;;15.70;99.90;;;;;;5052504;28;20056;-64
2022/11/10 11:20:52;;;;;;;21.35;4.00;;;14.80;99.90;;;;;;5052138;28;20041;-64
2022/11/10 11:23:39;;;;;;;25.45;4.53;;;14.70;99.90;;;;;;5052306;28;20041;-64
2022/11/10 11:26:16;;;;;;;24.80;4.18;;;14.00;99.90;;;;;;5047673;28;20036;-64
2022/11/10 11:29:06;;;;;;;33.55;5.32;;;14.70;99.90;;;;;;5052581;28;20127;-64
2022/11/10 11:31:51;;;;;;;28.80;4.32;;;13.80;99.90;;;;;;5051928;28;20550;-64
2022/11/10 11:34:27;;;;;;;20.30;3.80;;;14.60;99.90;;;;;;5052109;28;20110;-64
2022/11/10 11:37:03;;;;;;;29.13;4.90;;;15.40;99.90;;;;;;5052496;28;20044;-64
2022/11/10 11:39:42;;;;;;;30.48;4.28;;;15.00;99.90;;;;;;5047783;28;20048;-64
2022/11/10 11:42:22;;;;;;;22.70;4.00;;;14.40;99.90;;;;;;5051372;28;20041;-64
2022/11/10 11:45:15;;;;;;;31.55;4.65;;;14.70;99.90;;;;;;5049060;28;20099;-65
2022/11/10 11:48:12;;;;;;;33.95;5.13;;;14.50;99.90;;;;;;5044740;28;20405;-64
2022/11/10 11:50:56;;;;;;;32.17;4.57;;;14.60;99.90;;;;;;5044844;28;20037;-64
2022/11/10 11:54:00;;;;;;;32.67;5.18;;;14.70;99.90;;;;;;5043825;28;20048;-63
2022/11/10 11:56:36;;;;;;;25.67;3.88;;;16.10;99.90;;;;;;5050255;28;20124;-64
2022/11/10 11:59:19;;;;;;;25.50;3.78;;;14.90;99.90;;;;;;5045735;28;20041;-64
2022/11/10 12:02:15;;;;;;;22.70;3.97;;;16.10;99.90;;;;;;5048318;28;20517;-64
2022/11/10 12:05:04;;;;;;;28.30;4.13;;;14.80;99.90;;;;;;5050335;28;20577;-64
2022/11/10 12:07:45;;;;;;;28.80;4.82;;;15.60;99.90;;;;;;5031737;28;20175;-64
2022/11/10 12:10:21;;;;;;;23.92;3.33;;;16.10;99.90;;;;;;5050493;28;20045;-64
2022/11/10 12:13:05;;;;;;;29.38;4.50;;;15.70;99.90;;;;;;5052308;28;20052;-64
2022/11/10 12:15:48;;;;;;;29.48;4.22;;;15.80;99.90;;;;;;5051811;28;20047;-64
2022/11/10 12:18:36;;;;;;;17.08;3.17;;;14.40;99.90;;;;;;5048067;28;20033;-64
2022/11/10 12:21:29;;;;;;;23.63;5.30;;;14.20;99.90;;;;;;5050772;28;20055;-63
2022/11/10 12:24:28;;;;;;;21.33;3.45;;;15.20;99.90;;;;;;5048655;28;20052;-64
2022/11/10 12:26:58;;;;;;;33.63;4.30;;;14.70;99.90;;;;;;5050784;28;20045;-64
2022/11/10 12:29:31;;;;;;;28.35;4.13;;;14.10;99.90;;;;;;5048823;28;20052;-64
2022/11/10 12:32:04;;;;;;;27.33;4.18;;;15.10;99.90;;;;;;5051946;28;20040;-63
2022/11/10 12:34:42;;;;;;;26.90;4.32;;;14.30;99.90;;;;;;5043589;28;20513;-64
2022/11/10 12:37:16;;;;;;;31.13;4.55;;;14.60;99.90;;;;;;5037751;28;20250;-63
2022/11/10 12:39:57;;;;;;;30.52;4.10;;;15.20;99.90;;;;;;5050938;28;20044;-64
2022/11/10 12:42:27;;;;;;;25.80;3.78;;;14.40;99.90;;;;;;5048317;28;20789;-64
2022/11/10 12:44:59;;;;;;;24.60;3.80;;;15.70;99.90;;;;;;5049058;28;20048;-63
2022/11/10 12:47:30;;;;;;;19.58;2.83;;;14.50;99.90;;;;;;5051558;28;20037;-64
2022/11/10 12:50:35;;;;;;;27.35;3.90;;;14.70;99.90;;;;;;5050725;28;20428;-64
2022/11/10 12:53:10;;;;;;;24.08;4.35;;;16.00;99.90;;;;;;5051786;28;20140;-64
2022/11/10 12:55:43;;;;;;;20.85;3.60;;;14.90;99.90;;;;;;5047790;28;20037;-64
2022/11/10 12:58:12;;;;;;;18.35;3.30;;;15.80;99.90;;;;;;5047399;28;20040;-64
2022/11/10 13:00:53;;;;;;;24.45;3.60;;;14.70;99.90;;;;;;5044896;28;20090;-64
2022/11/10 13:03:26;;;;;;;21.23;4.00;;;15.50;99.90;;;;;;5049805;28;20140;-64